sensor_id;sensor_type;location;lat;lon;timestamp;P1;durP1;ratioP1;P2;durP2;ratioP2
44578;SDS011;37422;51.402;0.016;2022-09-09T00:00:41;22.80;;;5.47;;
44578;SDS011;37422;51.402;0.016;2022-09-09T00:03:19;24.25;;;5.82;;
44578;SDS011;37422;51.402;0.016;2022-09-09T00:10:58;25.80;;;5.15;;
44578;SDS011;37422;51.402;0.016;2022-09-09T00:13:31;25.73;;;6.07;;
44578;SDS011;37422;51.402;0.016;2022-09-09T00:16:17;25.63;;;5.82;;
44578;SDS011;37422;51.402;0.016;2022-09-09T00:24:45;19.77;;;5.20;;
44578;SDS011;37422;51.402;0.016;2022-09-09T00:32:54;25.95;;;5.70;;
44578;SDS011;37422;51.402;0.016;2022-09-09T00:38:02;21.17;;;5.88;;
44578;SDS011;37422;51.402;0.016;2022-09-09T00:40:49;27.02;;;6.40;;
44578;SDS011;37422;51.402;0.016;2022-09-09T00:43:27;20.02;;;5.05;;
44578;SDS011;37422;51.402;0.016;2022-09-09T00:46:00;26.48;;;6.13;;
44578;SDS011;37422;51.402;0.016;2022-09-09T00:57:13;29.73;;;7.78;;
44578;SDS011;37422;51.402;0.016;2022-09-09T01:02:27;23.55;;;5.97;;
44578;SDS011;37422;51.402;0.016;2022-09-09T01:08:09;22.38;;;6.32;;
44578;SDS011;37422;51.402;0.016;2022-09-09T01:10:50;22.92;;;6.70;;
44578;SDS011;37422;51.402;0.016;2022-09-09T01:13:30;24.85;;;6.68;;
44578;SDS011;37422;51.402;0.016;2022-09-09T01:16:06;21.40;;;5.88;;
44578;SDS011;37422;51.402;0.016;2022-09-09T01:18:46;22.98;;;6.35;;
44578;SDS011;37422;51.402;0.016;2022-09-09T01:27:39;27.25;;;6.40;;
44578;SDS011;37422;51.402;0.016;2022-09-09T01:30:11;17.98;;;7.20;;
44578;SDS011;37422;51.402;0.016;2022-09-09T01:32:46;25.30;;;7.03;;
44578;SDS011;37422;51.402;0.016;2022-09-09T01:35:59;25.20;;;6.75;;
44578;SDS011;37422;51.402;0.016;2022-09-09T01:38:36;29.35;;;6.25;;
44578;SDS011;37422;51.402;0.016;2022-09-09T01:41:04;21.98;;;6.00;;
44578;SDS011;37422;51.402;0.016;2022-09-09T01:43:45;23.15;;;6.90;;
44578;SDS011;37422;51.402;0.016;2022-09-09T01:46:14;24.92;;;6.28;;
44578;SDS011;37422;51.402;0.016;2022-09-09T01:48:43;34.10;;;7.53;;
44578;SDS011;37422;51.402;0.016;2022-09-09T01:51:12;25.58;;;7.65;;
44578;SDS011;37422;51.402;0.016;2022-09-09T01:53:40;35.75;;;9.07;;
44578;SDS011;37422;51.402;0.016;2022-09-09T01:56:35;22.83;;;6.65;;
44578;SDS011;37422;51.402;0.016;2022-09-09T01:59:25;29.55;;;6.22;;
44578;SDS011;37422;51.402;0.016;2022-09-09T02:02:18;29.38;;;6.82;;
44578;SDS011;37422;51.402;0.016;2022-09-09T02:05:07;22.38;;;5.72;;
44578;SDS011;37422;51.402;0.016;2022-09-09T02:07:55;25.23;;;6.07;;
44578;SDS011;37422;51.402;0.016;2022-09-09T02:13:16;30.13;;;6.13;;
44578;SDS011;37422;51.402;0.016;2022-09-09T02:18:22;22.67;;;5.95;;
44578;SDS011;37422;51.402;0.016;2022-09-09T02:20:54;20.35;;;4.82;;
44578;SDS011;37422;51.402;0.016;2022-09-09T02:23:25;15.27;;;3.75;;
44578;SDS011;37422;51.402;0.016;2022-09-09T02:25:55;11.03;;;3.33;;
44578;SDS011;37422;51.402;0.016;2022-09-09T02:28:26;18.08;;;3.80;;
44578;SDS011;37422;51.402;0.016;2022-09-09T02:30:57;14.52;;;3.83;;
44578;SDS011;37422;51.402;0.016;2022-09-09T02:33:33;17.17;;;4.38;;
44578;SDS011;37422;51.402;0.016;2022-09-09T02:36:06;21.75;;;5.07;;
44578;SDS011;37422;51.402;0.016;2022-09-09T02:38:40;26.98;;;4.97;;
44578;SDS011;37422;51.402;0.016;2022-09-09T02:41:15;23.30;;;5.05;;
44578;SDS011;37422;51.402;0.016;2022-09-09T02:43:43;20.02;;;5.28;;
44578;SDS011;37422;51.402;0.016;2022-09-09T02:46:36;20.83;;;5.70;;
44578;SDS011;37422;51.402;0.016;2022-09-09T02:49:25;18.98;;;6.18;;
44578;SDS011;37422;51.402;0.016;2022-09-09T02:52:06;29.63;;;6.70;;
44578;SDS011;37422;51.402;0.016;2022-09-09T02:54:40;30.02;;;7.30;;
44578;SDS011;37422;51.402;0.016;2022-09-09T02:57:12;22.25;;;5.90;;
44578;SDS011;37422;51.402;0.016;2022-09-09T02:59:49;26.00;;;6.00;;
44578;SDS011;37422;51.402;0.016;2022-09-09T03:02:19;28.80;;;6.80;;
44578;SDS011;37422;51.402;0.016;2022-09-09T03:04:53;22.35;;;7.10;;
44578;SDS011;37422;51.402;0.016;2022-09-09T03:07:21;28.38;;;7.72;;
44578;SDS011;37422;51.402;0.016;2022-09-09T03:09:50;23.88;;;6.68;;
44578;SDS011;37422;51.402;0.016;2022-09-09T03:12:19;26.33;;;6.05;;
44578;SDS011;37422;51.402;0.016;2022-09-09T03:14:48;18.58;;;5.47;;
44578;SDS011;37422;51.402;0.016;2022-09-09T03:17:15;23.90;;;7.18;;
44578;SDS011;37422;51.402;0.016;2022-09-09T03:19:50;27.83;;;7.20;;
44578;SDS011;37422;51.402;0.016;2022-09-09T03:22:19;19.98;;;6.10;;
44578;SDS011;37422;51.402;0.016;2022-09-09T03:24:48;25.65;;;6.05;;
44578;SDS011;37422;51.402;0.016;2022-09-09T03:27:17;23.40;;;6.75;;
44578;SDS011;37422;51.402;0.016;2022-09-09T03:29:46;21.00;;;6.63;;
44578;SDS011;37422;51.402;0.016;2022-09-09T03:32:19;20.23;;;5.75;;
44578;SDS011;37422;51.402;0.016;2022-09-09T03:34:49;19.90;;;5.93;;
44578;SDS011;37422;51.402;0.016;2022-09-09T03:37:18;23.85;;;6.97;;
44578;SDS011;37422;51.402;0.016;2022-09-09T03:39:48;24.20;;;5.95;;
44578;SDS011;37422;51.402;0.016;2022-09-09T03:42:18;17.15;;;6.07;;
44578;SDS011;37422;51.402;0.016;2022-09-09T03:44:49;22.05;;;8.18;;
44578;SDS011;37422;51.402;0.016;2022-09-09T03:49:53;25.25;;;6.15;;
44578;SDS011;37422;51.402;0.016;2022-09-09T03:52:20;32.00;;;8.23;;
44578;SDS011;37422;51.402;0.016;2022-09-09T03:54:53;20.52;;;6.30;;
44578;SDS011;37422;51.402;0.016;2022-09-09T03:57:21;20.55;;;6.90;;
44578;SDS011;37422;51.402;0.016;2022-09-09T03:59:52;23.17;;;6.80;;
44578;SDS011;37422;51.402;0.016;2022-09-09T04:02:20;21.77;;;7.05;;
44578;SDS011;37422;51.402;0.016;2022-09-09T04:04:48;30.10;;;7.50;;
44578;SDS011;37422;51.402;0.016;2022-09-09T04:07:16;19.58;;;6.50;;
44578;SDS011;37422;51.402;0.016;2022-09-09T04:09:44;26.90;;;7.55;;
44578;SDS011;37422;51.402;0.016;2022-09-09T04:12:13;24.05;;;7.63;;
44578;SDS011;37422;51.402;0.016;2022-09-09T04:14:41;18.55;;;7.30;;
44578;SDS011;37422;51.402;0.016;2022-09-09T04:17:10;26.08;;;6.88;;
44578;SDS011;37422;51.402;0.016;2022-09-09T04:19:38;19.23;;;6.72;;
44578;SDS011;37422;51.402;0.016;2022-09-09T04:22:05;21.02;;;6.80;;
44578;SDS011;37422;51.402;0.016;2022-09-09T04:24:33;21.42;;;8.00;;
44578;SDS011;37422;51.402;0.016;2022-09-09T04:27:02;23.48;;;7.40;;
44578;SDS011;37422;51.402;0.016;2022-09-09T04:32:00;27.08;;;7.28;;
44578;SDS011;37422;51.402;0.016;2022-09-09T04:34:29;24.80;;;6.95;;
44578;SDS011;37422;51.402;0.016;2022-09-09T04:36:58;19.60;;;6.72;;
44578;SDS011;37422;51.402;0.016;2022-09-09T04:39:28;23.98;;;7.68;;
44578;SDS011;37422;51.402;0.016;2022-09-09T04:41:58;24.75;;;7.72;;
44578;SDS011;37422;51.402;0.016;2022-09-09T04:44:25;20.45;;;7.28;;
44578;SDS011;37422;51.402;0.016;2022-09-09T04:46:54;21.98;;;7.80;;
44578;SDS011;37422;51.402;0.016;2022-09-09T04:49:21;23.80;;;8.32;;
44578;SDS011;37422;51.402;0.016;2022-09-09T04:51:49;18.85;;;6.88;;
44578;SDS011;37422;51.402;0.016;2022-09-09T04:54:18;20.40;;;8.10;;
44578;SDS011;37422;51.402;0.016;2022-09-09T04:56:46;21.48;;;7.63;;
44578;SDS011;37422;51.402;0.016;2022-09-09T04:59:14;23.27;;;8.80;;
44578;SDS011;37422;51.402;0.016;2022-09-09T05:01:46;25.10;;;7.57;;
44578;SDS011;37422;51.402;0.016;2022-09-09T05:04:14;22.15;;;7.43;;
44578;SDS011;37422;51.402;0.016;2022-09-09T05:06:43;20.95;;;7.72;;
44578;SDS011;37422;51.402;0.016;2022-09-09T05:09:12;22.20;;;7.25;;
44578;SDS011;37422;51.402;0.016;2022-09-09T05:11:40;20.65;;;8.13;;
44578;SDS011;37422;51.402;0.016;2022-09-09T05:14:16;27.35;;;8.20;;
44578;SDS011;37422;51.402;0.016;2022-09-09T05:16:47;22.95;;;7.65;;
44578;SDS011;37422;51.402;0.016;2022-09-09T05:19:16;20.48;;;8.07;;
44578;SDS011;37422;51.402;0.016;2022-09-09T05:21:48;20.88;;;7.95;;
44578;SDS011;37422;51.402;0.016;2022-09-09T05:24:21;23.30;;;8.70;;
44578;SDS011;37422;51.402;0.016;2022-09-09T05:26:53;23.92;;;10.93;;
44578;SDS011;37422;51.402;0.016;2022-09-09T05:29:21;23.98;;;11.85;;
44578;SDS011;37422;51.402;0.016;2022-09-09T05:31:49;32.83;;;12.00;;
44578;SDS011;37422;51.402;0.016;2022-09-09T05:34:20;28.63;;;10.60;;
44578;SDS011;37422;51.402;0.016;2022-09-09T05:36:49;27.58;;;11.55;;
44578;SDS011;37422;51.402;0.016;2022-09-09T05:41:47;30.38;;;10.90;;
44578;SDS011;37422;51.402;0.016;2022-09-09T05:44:15;30.20;;;10.35;;
44578;SDS011;37422;51.402;0.016;2022-09-09T05:46:43;29.05;;;10.57;;
44578;SDS011;37422;51.402;0.016;2022-09-09T05:49:13;33.88;;;12.60;;
44578;SDS011;37422;51.402;0.016;2022-09-09T05:51:43;30.13;;;12.15;;
44578;SDS011;37422;51.402;0.016;2022-09-09T05:54:13;29.50;;;11.35;;
44578;SDS011;37422;51.402;0.016;2022-09-09T05:56:46;27.30;;;10.05;;
44578;SDS011;37422;51.402;0.016;2022-09-09T05:59:18;30.35;;;13.15;;
44578;SDS011;37422;51.402;0.016;2022-09-09T06:01:46;31.92;;;11.60;;
44578;SDS011;37422;51.402;0.016;2022-09-09T06:04:23;27.10;;;11.27;;
44578;SDS011;37422;51.402;0.016;2022-09-09T06:06:52;24.27;;;11.13;;
44578;SDS011;37422;51.402;0.016;2022-09-09T06:09:22;32.60;;;12.23;;
44578;SDS011;37422;51.402;0.016;2022-09-09T06:11:50;28.02;;;12.55;;
44578;SDS011;37422;51.402;0.016;2022-09-09T06:14:19;26.33;;;12.50;;
44578;SDS011;37422;51.402;0.016;2022-09-09T06:16:49;29.65;;;12.13;;
44578;SDS011;37422;51.402;0.016;2022-09-09T06:19:21;25.70;;;11.52;;
44578;SDS011;37422;51.402;0.016;2022-09-09T06:21:50;25.70;;;12.40;;
44578;SDS011;37422;51.402;0.016;2022-09-09T06:24:18;30.88;;;11.30;;
44578;SDS011;37422;51.402;0.016;2022-09-09T06:26:47;29.70;;;11.38;;
44578;SDS011;37422;51.402;0.016;2022-09-09T06:29:25;31.40;;;10.93;;
44578;SDS011;37422;51.402;0.016;2022-09-09T06:31:53;25.92;;;10.95;;
44578;SDS011;37422;51.402;0.016;2022-09-09T06:34:23;30.40;;;10.87;;
44578;SDS011;37422;51.402;0.016;2022-09-09T06:36:54;29.85;;;10.75;;
44578;SDS011;37422;51.402;0.016;2022-09-09T06:39:27;24.95;;;8.93;;
44578;SDS011;37422;51.402;0.016;2022-09-09T06:41:55;28.00;;;9.50;;
44578;SDS011;37422;51.402;0.016;2022-09-09T06:44:43;24.10;;;10.68;;
44578;SDS011;37422;51.402;0.016;2022-09-09T06:47:17;25.55;;;10.20;;
44578;SDS011;37422;51.402;0.016;2022-09-09T06:49:47;25.42;;;8.60;;
44578;SDS011;37422;51.402;0.016;2022-09-09T06:52:15;22.73;;;8.20;;
44578;SDS011;37422;51.402;0.016;2022-09-09T06:54:54;23.20;;;8.95;;
44578;SDS011;37422;51.402;0.016;2022-09-09T06:57:22;19.80;;;9.07;;
44578;SDS011;37422;51.402;0.016;2022-09-09T07:00:10;23.15;;;8.65;;
44578;SDS011;37422;51.402;0.016;2022-09-09T07:02:40;18.17;;;7.72;;
44578;SDS011;37422;51.402;0.016;2022-09-09T07:05:13;22.65;;;8.38;;
44578;SDS011;37422;51.402;0.016;2022-09-09T07:07:44;22.75;;;8.15;;
44578;SDS011;37422;51.402;0.016;2022-09-09T07:10:14;18.30;;;7.53;;
44578;SDS011;37422;51.402;0.016;2022-09-09T07:12:43;20.58;;;7.40;;
44578;SDS011;37422;51.402;0.016;2022-09-09T07:15:12;18.10;;;8.02;;
44578;SDS011;37422;51.402;0.016;2022-09-09T07:17:44;14.73;;;7.25;;
44578;SDS011;37422;51.402;0.016;2022-09-09T07:20:12;20.00;;;8.18;;
44578;SDS011;37422;51.402;0.016;2022-09-09T07:22:41;22.63;;;8.27;;
44578;SDS011;37422;51.402;0.016;2022-09-09T07:25:10;18.48;;;7.85;;
44578;SDS011;37422;51.402;0.016;2022-09-09T07:27:50;18.30;;;7.50;;
44578;SDS011;37422;51.402;0.016;2022-09-09T07:30:18;19.83;;;7.88;;
44578;SDS011;37422;51.402;0.016;2022-09-09T07:32:53;18.95;;;8.73;;
44578;SDS011;37422;51.402;0.016;2022-09-09T07:37:51;21.08;;;8.50;;
44578;SDS011;37422;51.402;0.016;2022-09-09T07:40:19;21.15;;;8.00;;
44578;SDS011;37422;51.402;0.016;2022-09-09T07:42:49;18.10;;;7.32;;
44578;SDS011;37422;51.402;0.016;2022-09-09T07:45:17;16.15;;;7.05;;
44578;SDS011;37422;51.402;0.016;2022-09-09T07:47:44;16.73;;;7.43;;
44578;SDS011;37422;51.402;0.016;2022-09-09T07:50:12;17.30;;;7.57;;
44578;SDS011;37422;51.402;0.016;2022-09-09T07:52:40;19.40;;;8.50;;
44578;SDS011;37422;51.402;0.016;2022-09-09T07:55:08;19.48;;;7.15;;
44578;SDS011;37422;51.402;0.016;2022-09-09T07:57:36;20.58;;;10.23;;
44578;SDS011;37422;51.402;0.016;2022-09-09T08:00:05;17.85;;;8.30;;
44578;SDS011;37422;51.402;0.016;2022-09-09T08:02:38;19.75;;;8.02;;
44578;SDS011;37422;51.402;0.016;2022-09-09T08:05:07;16.42;;;7.47;;
44578;SDS011;37422;51.402;0.016;2022-09-09T08:07:36;18.38;;;7.57;;
44578;SDS011;37422;51.402;0.016;2022-09-09T08:10:04;18.23;;;7.45;;
44578;SDS011;37422;51.402;0.016;2022-09-09T08:12:35;16.48;;;6.93;;
44578;SDS011;37422;51.402;0.016;2022-09-09T08:15:03;15.45;;;6.50;;
44578;SDS011;37422;51.402;0.016;2022-09-09T08:17:33;14.35;;;6.47;;
44578;SDS011;37422;51.402;0.016;2022-09-09T08:20:05;11.15;;;6.55;;
44578;SDS011;37422;51.402;0.016;2022-09-09T08:22:34;30.30;;;7.40;;
44578;SDS011;37422;51.402;0.016;2022-09-09T08:25:02;12.60;;;5.85;;
44578;SDS011;37422;51.402;0.016;2022-09-09T08:27:34;12.57;;;5.75;;
44578;SDS011;37422;51.402;0.016;2022-09-09T08:30:03;10.20;;;5.40;;
44578;SDS011;37422;51.402;0.016;2022-09-09T08:32:31;18.30;;;6.47;;
44578;SDS011;37422;51.402;0.016;2022-09-09T08:34:59;14.05;;;5.88;;
44578;SDS011;37422;51.402;0.016;2022-09-09T08:37:28;12.60;;;5.17;;
44578;SDS011;37422;51.402;0.016;2022-09-09T08:39:56;15.70;;;5.72;;
44578;SDS011;37422;51.402;0.016;2022-09-09T08:42:28;12.93;;;5.68;;
44578;SDS011;37422;51.402;0.016;2022-09-09T08:51:10;12.32;;;6.57;;
44578;SDS011;37422;51.402;0.016;2022-09-09T08:53:42;13.55;;;7.72;;
44578;SDS011;37422;51.402;0.016;2022-09-09T08:56:16;18.48;;;7.28;;
44578;SDS011;37422;51.402;0.016;2022-09-09T08:58:54;15.13;;;7.53;;
44578;SDS011;37422;51.402;0.016;2022-09-09T09:13:13;20.10;;;8.18;;
44578;SDS011;37422;51.402;0.016;2022-09-09T09:15:55;14.93;;;8.25;;
44578;SDS011;37422;51.402;0.016;2022-09-09T09:18:27;18.45;;;7.75;;
44578;SDS011;37422;51.402;0.016;2022-09-09T09:21:07;18.20;;;8.50;;
44578;SDS011;37422;51.402;0.016;2022-09-09T09:23:58;14.60;;;7.70;;
44578;SDS011;37422;51.402;0.016;2022-09-09T09:26:33;15.90;;;8.88;;
44578;SDS011;37422;51.402;0.016;2022-09-09T09:29:13;17.67;;;8.77;;
44578;SDS011;37422;51.402;0.016;2022-09-09T09:31:48;19.75;;;8.55;;
44578;SDS011;37422;51.402;0.016;2022-09-09T09:34:22;17.85;;;9.25;;
44578;SDS011;37422;51.402;0.016;2022-09-09T09:39:26;19.80;;;8.85;;
44578;SDS011;37422;51.402;0.016;2022-09-09T09:42:16;20.30;;;9.35;;
44578;SDS011;37422;51.402;0.016;2022-09-09T09:44:51;19.60;;;9.05;;
44578;SDS011;37422;51.402;0.016;2022-09-09T09:47:21;17.25;;;8.90;;
44578;SDS011;37422;51.402;0.016;2022-09-09T09:50:00;17.95;;;9.65;;
44578;SDS011;37422;51.402;0.016;2022-09-09T09:52:35;21.75;;;11.10;;
44578;SDS011;37422;51.402;0.016;2022-09-09T09:55:11;23.45;;;10.05;;
44578;SDS011;37422;51.402;0.016;2022-09-09T09:57:42;21.30;;;10.55;;
44578;SDS011;37422;51.402;0.016;2022-09-09T10:02:51;25.23;;;11.07;;
44578;SDS011;37422;51.402;0.016;2022-09-09T10:05:27;24.33;;;12.45;;
44578;SDS011;37422;51.402;0.016;2022-09-09T10:19:31;25.33;;;12.10;;
44578;SDS011;37422;51.402;0.016;2022-09-09T10:22:02;24.00;;;12.50;;
44578;SDS011;37422;51.402;0.016;2022-09-09T10:32:48;27.20;;;12.50;;
44578;SDS011;37422;51.402;0.016;2022-09-09T10:40:39;22.20;;;10.57;;
44578;SDS011;37422;51.402;0.016;2022-09-09T10:49:57;24.23;;;12.07;;
44578;SDS011;37422;51.402;0.016;2022-09-09T10:52:30;24.67;;;11.55;;
44578;SDS011;37422;51.402;0.016;2022-09-09T10:55:00;21.25;;;10.77;;
44578;SDS011;37422;51.402;0.016;2022-09-09T10:57:44;20.40;;;10.57;;
44578;SDS011;37422;51.402;0.016;2022-09-09T11:00:22;23.85;;;11.82;;
44578;SDS011;37422;51.402;0.016;2022-09-09T11:03:00;25.77;;;12.95;;
44578;SDS011;37422;51.402;0.016;2022-09-09T11:08:13;23.58;;;12.82;;
44578;SDS011;37422;51.402;0.016;2022-09-09T11:16:35;22.92;;;11.82;;
44578;SDS011;37422;51.402;0.016;2022-09-09T11:21:55;19.17;;;11.07;;
44578;SDS011;37422;51.402;0.016;2022-09-09T11:24:39;20.27;;;10.23;;
44578;SDS011;37422;51.402;0.016;2022-09-09T11:42:07;13.50;;;5.45;;
44578;SDS011;37422;51.402;0.016;2022-09-09T11:44:41;13.18;;;6.00;;
44578;SDS011;37422;51.402;0.016;2022-09-09T11:52:43;13.80;;;7.80;;
44578;SDS011;37422;51.402;0.016;2022-09-09T11:58:00;10.93;;;5.22;;
44578;SDS011;37422;51.402;0.016;2022-09-09T12:00:41;12.20;;;4.75;;
44578;SDS011;37422;51.402;0.016;2022-09-09T12:06:25;6.40;;;3.97;;
44578;SDS011;37422;51.402;0.016;2022-09-09T12:08:57;12.60;;;4.70;;
44578;SDS011;37422;51.402;0.016;2022-09-09T12:11:39;9.02;;;4.43;;
44578;SDS011;37422;51.402;0.016;2022-09-09T12:14:18;9.57;;;3.92;;
44578;SDS011;37422;51.402;0.016;2022-09-09T12:19:59;15.48;;;5.07;;
44578;SDS011;37422;51.402;0.016;2022-09-09T12:25:41;6.93;;;4.30;;
44578;SDS011;37422;51.402;0.016;2022-09-09T12:31:17;11.30;;;4.15;;
44578;SDS011;37422;51.402;0.016;2022-09-09T12:36:46;8.95;;;4.13;;
44578;SDS011;37422;51.402;0.016;2022-09-09T12:42:02;11.45;;;4.40;;
44578;SDS011;37422;51.402;0.016;2022-09-09T12:44:31;10.25;;;4.22;;
44578;SDS011;37422;51.402;0.016;2022-09-09T12:47:00;12.45;;;4.43;;
44578;SDS011;37422;51.402;0.016;2022-09-09T12:49:37;9.65;;;3.85;;
44578;SDS011;37422;51.402;0.016;2022-09-09T12:54:44;9.82;;;3.25;;
44578;SDS011;37422;51.402;0.016;2022-09-09T12:57:14;6.95;;;3.28;;
44578;SDS011;37422;51.402;0.016;2022-09-09T12:59:43;6.00;;;3.45;;
44578;SDS011;37422;51.402;0.016;2022-09-09T13:04:50;8.65;;;3.97;;
44578;SDS011;37422;51.402;0.016;2022-09-09T13:07:19;8.45;;;3.42;;
44578;SDS011;37422;51.402;0.016;2022-09-09T13:09:48;10.70;;;4.43;;
44578;SDS011;37422;51.402;0.016;2022-09-09T13:12:18;11.40;;;4.15;;
44578;SDS011;37422;51.402;0.016;2022-09-09T13:14:48;5.13;;;3.13;;
44578;SDS011;37422;51.402;0.016;2022-09-09T13:17:21;6.07;;;2.80;;
44578;SDS011;37422;51.402;0.016;2022-09-09T13:19:51;8.23;;;3.30;;
44578;SDS011;37422;51.402;0.016;2022-09-09T13:25:00;6.50;;;3.20;;
44578;SDS011;37422;51.402;0.016;2022-09-09T13:27:42;7.40;;;3.15;;
44578;SDS011;37422;51.402;0.016;2022-09-09T13:33:00;9.15;;;3.03;;
44578;SDS011;37422;51.402;0.016;2022-09-09T13:35:29;9.25;;;3.50;;
44578;SDS011;37422;51.402;0.016;2022-09-09T13:37:57;5.70;;;3.25;;
44578;SDS011;37422;51.402;0.016;2022-09-09T13:40:27;9.63;;;3.22;;
44578;SDS011;37422;51.402;0.016;2022-09-09T13:42:56;8.82;;;2.83;;
44578;SDS011;37422;51.402;0.016;2022-09-09T13:45:25;5.10;;;3.00;;
44578;SDS011;37422;51.402;0.016;2022-09-09T13:47:54;7.35;;;3.38;;
44578;SDS011;37422;51.402;0.016;2022-09-09T13:50:24;6.32;;;3.17;;
44578;SDS011;37422;51.402;0.016;2022-09-09T13:52:54;12.38;;;3.90;;
44578;SDS011;37422;51.402;0.016;2022-09-09T13:55:26;6.88;;;3.25;;
44578;SDS011;37422;51.402;0.016;2022-09-09T13:57:56;8.60;;;4.55;;
44578;SDS011;37422;51.402;0.016;2022-09-09T14:00:31;9.10;;;3.92;;
44578;SDS011;37422;51.402;0.016;2022-09-09T14:03:01;9.02;;;4.32;;
44578;SDS011;37422;51.402;0.016;2022-09-09T14:05:32;9.05;;;4.22;;
44578;SDS011;37422;51.402;0.016;2022-09-09T14:08:02;8.18;;;4.20;;
44578;SDS011;37422;51.402;0.016;2022-09-09T14:10:31;6.07;;;3.53;;
44578;SDS011;37422;51.402;0.016;2022-09-09T14:12:59;9.88;;;3.97;;
44578;SDS011;37422;51.402;0.016;2022-09-09T14:15:28;7.88;;;3.75;;
44578;SDS011;37422;51.402;0.016;2022-09-09T14:17:56;8.60;;;4.13;;
44578;SDS011;37422;51.402;0.016;2022-09-09T14:20:25;8.75;;;3.50;;
44578;SDS011;37422;51.402;0.016;2022-09-09T14:22:53;5.90;;;3.40;;
44578;SDS011;37422;51.402;0.016;2022-09-09T14:25:21;8.88;;;3.50;;
44578;SDS011;37422;51.402;0.016;2022-09-09T14:27:58;6.75;;;3.42;;
44578;SDS011;37422;51.402;0.016;2022-09-09T14:30:26;8.57;;;3.58;;
44578;SDS011;37422;51.402;0.016;2022-09-09T14:32:53;7.15;;;3.45;;
44578;SDS011;37422;51.402;0.016;2022-09-09T14:35:21;8.43;;;3.42;;
44578;SDS011;37422;51.402;0.016;2022-09-09T14:37:50;9.60;;;3.85;;
44578;SDS011;37422;51.402;0.016;2022-09-09T14:40:18;11.63;;;4.35;;
44578;SDS011;37422;51.402;0.016;2022-09-09T14:42:46;6.15;;;3.20;;
44578;SDS011;37422;51.402;0.016;2022-09-09T14:45:14;6.60;;;3.72;;
44578;SDS011;37422;51.402;0.016;2022-09-09T14:47:42;7.20;;;3.45;;
44578;SDS011;37422;51.402;0.016;2022-09-09T14:50:09;7.05;;;3.33;;
44578;SDS011;37422;51.402;0.016;2022-09-09T14:52:39;10.98;;;4.28;;
44578;SDS011;37422;51.402;0.016;2022-09-09T14:55:07;7.35;;;3.53;;
44578;SDS011;37422;51.402;0.016;2022-09-09T14:57:35;9.10;;;3.88;;
44578;SDS011;37422;51.402;0.016;2022-09-09T15:00:03;6.05;;;3.53;;
44578;SDS011;37422;51.402;0.016;2022-09-09T15:02:32;13.00;;;4.73;;
44578;SDS011;37422;51.402;0.016;2022-09-09T15:05:00;8.80;;;3.17;;
44578;SDS011;37422;51.402;0.016;2022-09-09T15:07:28;7.50;;;2.95;;
44578;SDS011;37422;51.402;0.016;2022-09-09T15:09:58;4.72;;;3.33;;
44578;SDS011;37422;51.402;0.016;2022-09-09T15:12:33;5.95;;;3.60;;
44578;SDS011;37422;51.402;0.016;2022-09-09T15:15:02;6.20;;;2.55;;
44578;SDS011;37422;51.402;0.016;2022-09-09T15:17:30;6.22;;;2.30;;
44578;SDS011;37422;51.402;0.016;2022-09-09T15:20:02;2.63;;;1.90;;
44578;SDS011;37422;51.402;0.016;2022-09-09T15:22:32;6.68;;;2.33;;
44578;SDS011;37422;51.402;0.016;2022-09-09T15:25:00;8.70;;;4.13;;
44578;SDS011;37422;51.402;0.016;2022-09-09T15:27:28;7.75;;;2.85;;
44578;SDS011;37422;51.402;0.016;2022-09-09T15:29:58;5.80;;;2.28;;
44578;SDS011;37422;51.402;0.016;2022-09-09T15:32:25;8.60;;;2.47;;
44578;SDS011;37422;51.402;0.016;2022-09-09T15:34:54;8.27;;;3.60;;
44578;SDS011;37422;51.402;0.016;2022-09-09T15:37:22;4.93;;;2.15;;
44578;SDS011;37422;51.402;0.016;2022-09-09T15:39:50;7.68;;;2.13;;
44578;SDS011;37422;51.402;0.016;2022-09-09T15:42:17;6.22;;;2.00;;
44578;SDS011;37422;51.402;0.016;2022-09-09T15:44:45;5.55;;;1.70;;
44578;SDS011;37422;51.402;0.016;2022-09-09T15:47:13;5.45;;;1.70;;
44578;SDS011;37422;51.402;0.016;2022-09-09T15:49:40;4.70;;;1.83;;
44578;SDS011;37422;51.402;0.016;2022-09-09T15:52:11;3.63;;;2.08;;
44578;SDS011;37422;51.402;0.016;2022-09-09T15:54:38;3.72;;;2.05;;
44578;SDS011;37422;51.402;0.016;2022-09-09T15:57:07;6.95;;;2.28;;
44578;SDS011;37422;51.402;0.016;2022-09-09T15:59:38;4.03;;;1.95;;
44578;SDS011;37422;51.402;0.016;2022-09-09T16:02:08;4.22;;;2.08;;
44578;SDS011;37422;51.402;0.016;2022-09-09T16:04:37;7.55;;;2.38;;
44578;SDS011;37422;51.402;0.016;2022-09-09T16:07:08;11.32;;;2.90;;
44578;SDS011;37422;51.402;0.016;2022-09-09T16:09:36;17.77;;;5.60;;
44578;SDS011;37422;51.402;0.016;2022-09-09T16:12:04;17.10;;;4.25;;
44578;SDS011;37422;51.402;0.016;2022-09-09T16:14:37;9.43;;;2.97;;
44578;SDS011;37422;51.402;0.016;2022-09-09T16:17:25;6.80;;;2.88;;
44578;SDS011;37422;51.402;0.016;2022-09-09T16:19:54;10.18;;;2.97;;
44578;SDS011;37422;51.402;0.016;2022-09-09T16:22:24;8.48;;;3.00;;
44578;SDS011;37422;51.402;0.016;2022-09-09T16:24:52;7.35;;;2.90;;
44578;SDS011;37422;51.402;0.016;2022-09-09T16:27:20;10.30;;;3.45;;
44578;SDS011;37422;51.402;0.016;2022-09-09T16:29:50;5.18;;;3.03;;
44578;SDS011;37422;51.402;0.016;2022-09-09T16:32:18;10.27;;;3.42;;
44578;SDS011;37422;51.402;0.016;2022-09-09T16:34:47;9.02;;;4.22;;
44578;SDS011;37422;51.402;0.016;2022-09-09T16:37:15;9.07;;;4.13;;
44578;SDS011;37422;51.402;0.016;2022-09-09T16:39:42;10.02;;;4.05;;
44578;SDS011;37422;51.402;0.016;2022-09-09T16:42:10;10.60;;;4.20;;
44578;SDS011;37422;51.402;0.016;2022-09-09T16:44:38;9.65;;;4.18;;
44578;SDS011;37422;51.402;0.016;2022-09-09T16:47:06;8.30;;;4.10;;
44578;SDS011;37422;51.402;0.016;2022-09-09T16:49:34;12.38;;;4.70;;
44578;SDS011;37422;51.402;0.016;2022-09-09T16:52:07;12.13;;;4.60;;
44578;SDS011;37422;51.402;0.016;2022-09-09T16:54:37;10.93;;;4.63;;
44578;SDS011;37422;51.402;0.016;2022-09-09T16:57:05;10.77;;;4.43;;
44578;SDS011;37422;51.402;0.016;2022-09-09T16:59:33;10.23;;;4.97;;
44578;SDS011;37422;51.402;0.016;2022-09-09T17:02:01;10.40;;;5.13;;
44578;SDS011;37422;51.402;0.016;2022-09-09T17:04:31;10.52;;;5.20;;
44578;SDS011;37422;51.402;0.016;2022-09-09T17:07:00;16.42;;;5.22;;
44578;SDS011;37422;51.402;0.016;2022-09-09T17:09:29;10.70;;;4.90;;
44578;SDS011;37422;51.402;0.016;2022-09-09T17:11:58;10.52;;;6.03;;
44578;SDS011;37422;51.402;0.016;2022-09-09T17:14:26;14.15;;;6.18;;
44578;SDS011;37422;51.402;0.016;2022-09-09T17:16:53;14.02;;;6.32;;
44578;SDS011;37422;51.402;0.016;2022-09-09T17:19:21;14.90;;;7.97;;
44578;SDS011;37422;51.402;0.016;2022-09-09T17:21:49;15.90;;;6.65;;
44578;SDS011;37422;51.402;0.016;2022-09-09T17:24:36;15.82;;;7.38;;
44578;SDS011;37422;51.402;0.016;2022-09-09T17:27:05;14.00;;;6.30;;
44578;SDS011;37422;51.402;0.016;2022-09-09T17:29:34;16.48;;;6.63;;
44578;SDS011;37422;51.402;0.016;2022-09-09T17:32:03;11.20;;;6.60;;
44578;SDS011;37422;51.402;0.016;2022-09-09T17:34:33;12.23;;;6.50;;
44578;SDS011;37422;51.402;0.016;2022-09-09T17:37:01;13.82;;;6.50;;
44578;SDS011;37422;51.402;0.016;2022-09-09T17:39:29;18.48;;;6.78;;
44578;SDS011;37422;51.402;0.016;2022-09-09T17:41:57;12.75;;;6.57;;
44578;SDS011;37422;51.402;0.016;2022-09-09T17:45:03;13.98;;;7.32;;
44578;SDS011;37422;51.402;0.016;2022-09-09T17:47:31;15.57;;;6.90;;
44578;SDS011;37422;51.402;0.016;2022-09-09T17:49:58;15.50;;;7.68;;
44578;SDS011;37422;51.402;0.016;2022-09-09T17:52:26;16.15;;;8.20;;
44578;SDS011;37422;51.402;0.016;2022-09-09T17:54:54;13.35;;;7.03;;